Time,TemperatureF,DewpointF,PressureIn,WindDirection,WindDirectionDegrees,WindSpeedMPH,WindSpeedGustMPH,Humidity,HourlyPrecipIn,Conditions,Clouds,dailyrainin,SoftwareType,DateUTC
2013-11-08 00:01:00,50.9,46.9,29.97,SSE,166,0.0,0.0,86,0.00,,---,0.00,VWS V14.01,2013-11-07 23:01:00,
2013-11-08 00:06:00,50.7,46.7,29.97,SSE,166,0.0,0.0,86,0.00,,---,0.00,VWS V14.01,2013-11-07 23:06:00,
2013-11-08 00:11:00,50.5,46.5,29.97,SSE,166,0.0,0.0,86,0.00,,---,0.00,VWS V14.01,2013-11-07 23:11:00,
2013-11-08 00:16:00,50.4,46.3,29.97,SSE,166,0.0,0.0,86,0.00,,---,0.00,VWS V14.01,2013-11-07 23:16:00,
2013-11-08 00:21:00,50.4,46.3,29.97,SSE,166,0.0,0.0,86,0.00,,---,0.00,VWS V14.01,2013-11-07 23:21:00,
2013-11-08 00:26:00,50.2,46.2,29.97,SSE,166,0.0,0.0,86,0.00,,---,0.00,VWS V14.01,2013-11-07 23:26:00,
2013-11-08 00:31:00,49.8,45.8,29.97,SSE,166,0.0,0.0,86,0.00,,---,0.00,VWS V14.01,2013-11-07 23:31:00,
2013-11-08 00:36:00,49.5,45.5,29.97,SSE,166,4.0,4.0,86,0.00,,---,0.00,VWS V14.01,2013-11-07 23:36:00,
2013-11-08 00:41:00,49.5,45.5,29.97,SSE,166,0.0,0.0,86,0.00,,---,0.00,VWS V14.01,2013-11-07 23:41:00,
2013-11-08 00:46:00,49.1,45.1,29.97,SSE,166,0.0,0.0,86,0.00,,---,0.00,VWS V14.01,2013-11-07 23:46:00,
2013-11-08 00:51:00,48.9,45.2,29.97,SSE,166,0.0,0.0,87,0.00,,---,0.00,VWS V14.01,2013-11-07 23:51:00,
2013-11-08 00:56:00,48.7,45.0,29.97,SSE,166,0.0,0.0,87,0.00,,---,0.00,VWS V14.01,2013-11-07 23:56:00,
2013-11-08 01:01:00,48.7,45.0,29.97,SSE,166,0.0,0.0,87,0.00,,---,0.00,VWS V14.01,2013-11-08 00:01:00,
2013-11-08 01:06:00,48.6,44.9,29.97,SSE,166,0.0,0.0,87,0.00,,---,0.00,VWS V14.01,2013-11-08 00:06:00,
2013-11-08 01:11:00,48.4,45.0,29.97,SSE,166,0.0,0.0,88,0.00,,---,0.00,VWS V14.01,2013-11-08 00:11:00,
2013-11-08 01:16:00,48.4,45.0,29.97,SSE,166,0.0,0.0,88,0.00,,---,0.00,VWS V14.01,2013-11-08 00:16:00,
2013-11-08 01:21:00,48.4,45.0,29.97,SSE,166,0.0,0.0,88,0.00,,---,0.00,VWS V14.01,2013-11-08 00:21:00,
2013-11-08 01:26:00,48.2,44.8,29.97,SSE,166,0.0,0.0,88,0.00,,---,0.00,VWS V14.01,2013-11-08 00:26:00,
2013-11-08 01:31:00,48.2,45.1,29.97,SSE,166,0.0,0.0,89,0.00,,---,0.00,VWS V14.01,2013-11-08 00:31:00,
2013-11-08 01:36:00,48.0,44.9,29.97,SSE,166,0.0,0.0,89,0.00,,---,0.00,VWS V14.01,2013-11-08 00:36:00,
2013-11-08 01:41:00,47.8,44.8,29.97,SSE,166,0.0,0.0,89,0.00,,---,0.00,VWS V14.01,2013-11-08 00:41:00,
2013-11-08 01:46:00,47.7,44.6,29.97,SSE,166,0.0,0.0,89,0.00,,---,0.00,VWS V14.01,2013-11-08 00:46:00,
2013-11-08 01:51:00,47.7,44.6,29.97,SSE,166,0.0,0.0,89,0.00,,---,0.00,VWS V14.01,2013-11-08 00:51:00,
2013-11-08 01:56:00,47.5,44.7,29.97,SSE,166,0.0,0.0,90,0.00,,---,0.00,VWS V14.01,2013-11-08 00:56:00,
2013-11-08 02:01:00,47.5,44.7,29.97,SSE,166,0.0,0.0,90,0.00,,---,0.00,VWS V14.01,2013-11-08 01:01:00,
2013-11-08 02:06:00,47.5,44.7,29.97,SSE,166,0.0,0.0,90,0.00,,---,0.00,VWS V14.01,2013-11-08 01:06:00,
2013-11-08 02:11:00,47.3,44.5,29.97,SSE,166,0.0,0.0,90,0.00,,---,0.00,VWS V14.01,2013-11-08 01:11:00,
2013-11-08 02:16:00,47.1,44.3,29.97,SSE,166,0.0,0.0,90,0.00,,---,0.00,VWS V14.01,2013-11-08 01:16:00,
2013-11-08 02:21:00,46.9,44.5,29.97,SSE,166,0.0,0.0,91,0.00,,---,0.00,VWS V14.01,2013-11-08 01:21:00,
2013-11-08 02:26:00,46.9,44.5,29.97,SSE,166,0.0,0.0,91,0.00,,---,0.00,VWS V14.01,2013-11-08 01:26:00,
2013-11-08 02:31:00,46.9,44.5,29.97,SSE,166,3.1,3.1,91,0.00,,---,0.00,VWS V14.01,2013-11-08 01:31:00,
2013-11-08 02:36:00,46.9,44.5,29.97,SSE,166,0.0,0.0,91,0.00,,---,0.00,VWS V14.01,2013-11-08 01:36:00,
2013-11-08 02:41:00,46.9,44.7,29.97,SSE,166,0.0,2.7,92,0.00,,---,0.00,VWS V14.01,2013-11-08 01:41:00,
2013-11-08 02:46:00,47.1,44.9,29.97,SSE,166,0.0,3.1,92,0.00,,---,0.00,VWS V14.01,2013-11-08 01:46:00,
2013-11-08 02:51:00,47.1,44.9,29.97,SSE,166,0.0,0.0,92,0.00,,---,0.00,VWS V14.01,2013-11-08 01:51:00,
2013-11-08 02:56:00,47.1,44.9,29.97,SSE,166,0.0,3.1,92,0.00,,---,0.00,VWS V14.01,2013-11-08 01:56:00,
2013-11-08 03:01:00,47.3,45.1,29.97,SSE,166,0.0,0.0,92,0.00,,---,0.00,VWS V14.01,2013-11-08 02:01:00,
2013-11-08 03:06:00,46.9,44.7,29.97,SSE,166,0.0,0.0,92,0.00,,---,0.00,VWS V14.01,2013-11-08 02:06:00,
2013-11-08 03:11:00,46.8,44.6,29.97,SSE,166,0.0,0.0,92,0.00,,---,0.00,VWS V14.01,2013-11-08 02:11:00,
2013-11-08 03:16:00,46.6,44.4,29.97,SSE,166,0.0,0.0,92,0.00,,---,0.00,VWS V14.01,2013-11-08 02:16:00,
2013-11-08 03:21:00,46.4,44.2,29.97,SSE,166,0.0,0.0,92,0.00,,---,0.00,VWS V14.01,2013-11-08 02:21:00,
2013-11-08 03:26:00,46.2,44.0,29.97,SSE,166,0.0,0.0,92,0.00,,---,0.00,VWS V14.01,2013-11-08 02:26:00,
2013-11-08 03:31:00,46.0,44.1,29.97,SSE,166,0.0,0.0,93,0.00,,---,0.00,VWS V14.01,2013-11-08 02:31:00,
2013-11-08 03:36:00,46.0,44.1,29.97,SSE,166,0.0,0.0,93,0.00,,---,0.00,VWS V14.01,2013-11-08 02:36:00,
2013-11-08 03:41:00,45.5,43.6,29.97,SSE,166,0.0,0.0,93,0.00,,---,0.00,VWS V14.01,2013-11-08 02:41:00,
2013-11-08 03:46:00,45.3,43.4,29.97,SSE,166,0.0,0.0,93,0.00,,---,0.00,VWS V14.01,2013-11-08 02:46:00,
2013-11-08 03:51:00,45.3,43.4,29.97,SSE,166,0.0,0.0,93,0.00,,---,0.00,VWS V14.01,2013-11-08 02:51:00,
2013-11-08 03:56:00,45.1,43.2,29.97,SSE,166,0.0,0.0,93,0.00,,---,0.00,VWS V14.01,2013-11-08 02:56:00,
2013-11-08 04:01:00,45.0,43.1,29.97,SSE,166,0.0,0.0,93,0.00,,---,0.00,VWS V14.01,2013-11-08 03:01:00,
2013-11-08 04:06:00,44.8,42.9,29.97,SSE,166,0.0,0.0,93,0.00,,---,0.00,VWS V14.01,2013-11-08 03:06:00,
2013-11-08 04:11:00,44.8,42.9,29.97,SSE,166,0.0,0.0,93,0.00,,---,0.00,VWS V14.01,2013-11-08 03:11:00,
2013-11-08 04:16:00,44.6,42.7,29.97,SSE,166,0.0,0.0,93,0.00,,---,0.00,VWS V14.01,2013-11-08 03:16:00,
2013-11-08 04:21:00,44.8,43.2,29.97,SSE,166,0.0,0.0,94,0.00,,---,0.00,VWS V14.01,2013-11-08 03:21:00,
2013-11-08 04:26:00,44.8,43.2,29.97,SSE,166,0.0,0.0,94,0.00,,---,0.00,VWS V14.01,2013-11-08 03:26:00,
2013-11-08 04:31:00,45.1,43.5,29.97,SSE,166,0.0,0.0,94,0.00,,---,0.00,VWS V14.01,2013-11-08 03:31:00,
2013-11-08 04:36:00,45.3,43.7,29.97,SSE,166,0.0,0.0,94,0.00,,---,0.00,VWS V14.01,2013-11-08 03:36:00,
2013-11-08 04:41:00,45.3,43.7,29.97,SSE,166,0.0,0.0,94,0.00,,---,0.00,VWS V14.01,2013-11-08 03:41:00,
2013-11-08 04:46:00,45.3,43.7,29.97,SSE,166,0.0,0.0,94,0.00,,---,0.00,VWS V14.01,2013-11-08 03:46:00,
2013-11-08 04:51:00,45.5,43.9,29.97,SSE,166,3.1,3.1,94,0.00,,---,0.00,VWS V14.01,2013-11-08 03:51:00,
2013-11-08 04:56:00,46.0,44.4,29.97,SSE,166,0.0,0.0,94,0.00,,---,0.00,VWS V14.01,2013-11-08 03:56:00,
2013-11-08 05:01:00,46.0,44.4,29.97,SSE,166,0.0,0.0,94,0.00,,---,0.00,VWS V14.01,2013-11-08 04:01:00,
2013-11-08 05:06:00,45.9,44.2,29.97,SSE,166,0.0,0.0,94,0.00,,---,0.00,VWS V14.01,2013-11-08 04:06:00,
2013-11-08 05:11:00,45.7,44.1,29.97,SSE,166,0.0,0.0,94,0.00,,---,0.00,VWS V14.01,2013-11-08 04:11:00,
2013-11-08 05:16:00,45.3,43.7,29.97,SSE,166,0.0,0.0,94,0.00,,---,0.00,VWS V14.01,2013-11-08 04:16:00,
2013-11-08 05:21:00,45.1,43.5,29.97,SSE,166,0.0,0.0,94,0.00,,---,0.00,VWS V14.01,2013-11-08 04:21:00,
2013-11-08 05:26:00,44.8,43.2,29.97,SSE,166,0.0,0.0,94,0.00,,---,0.00,VWS V14.01,2013-11-08 04:26:00,
2013-11-08 05:31:00,44.6,43.0,29.97,SSE,166,0.0,0.0,94,0.00,,---,0.00,VWS V14.01,2013-11-08 04:31:00,
2013-11-08 05:36:00,44.4,42.8,29.97,SSE,166,0.0,0.0,94,0.00,,---,0.00,VWS V14.01,2013-11-08 04:36:00,
2013-11-08 05:41:00,44.2,42.6,29.97,SSE,166,2.7,3.6,94,0.00,,---,0.00,VWS V14.01,2013-11-08 04:41:00,
2013-11-08 05:46:00,44.1,42.5,29.97,SSE,166,3.6,4.0,94,0.00,,---,0.00,VWS V14.01,2013-11-08 04:46:00,
2013-11-08 05:52:00,44.1,42.5,29.97,SSE,166,3.1,3.6,94,0.00,,---,0.00,VWS V14.01,2013-11-08 04:52:00,
2013-11-08 05:57:00,44.1,42.5,29.97,SSE,166,0.0,0.0,94,0.00,,---,0.00,VWS V14.01,2013-11-08 04:57:00,
2013-11-08 06:01:00,44.1,42.7,29.97,SSE,166,2.7,3.6,95,0.00,,---,0.00,VWS V14.01,2013-11-08 05:01:00,
2013-11-08 06:02:00,44.1,42.7,29.97,SSE,166,2.7,3.1,95,0.00,,---,0.00,VWS V14.01,2013-11-08 05:02:00,
2013-11-08 06:07:00,43.7,42.1,29.97,SSE,166,0.0,0.0,94,0.00,,---,0.00,VWS V14.01,2013-11-08 05:07:00,
2013-11-08 06:12:00,43.7,42.4,29.97,SSE,166,0.0,0.0,95,0.00,,---,0.00,VWS V14.01,2013-11-08 05:12:00,
2013-11-08 06:17:00,43.7,42.4,29.97,SSE,166,0.0,0.0,95,0.00,,---,0.00,VWS V14.01,2013-11-08 05:17:00,
2013-11-08 06:22:00,43.7,42.4,29.97,SSE,166,0.0,0.0,95,0.00,,---,0.00,VWS V14.01,2013-11-08 05:22:00,
2013-11-08 06:27:00,43.7,42.4,29.97,SSE,166,0.0,0.0,95,0.00,,---,0.00,VWS V14.01,2013-11-08 05:27:00,
2013-11-08 06:32:00,43.5,42.2,29.97,SSE,166,0.0,0.0,95,0.00,,---,0.00,VWS V14.01,2013-11-08 05:32:00,
2013-11-08 06:37:00,43.3,42.0,29.97,SSE,166,2.7,3.1,95,0.00,,---,0.00,VWS V14.01,2013-11-08 05:37:00,
2013-11-08 06:42:00,43.2,41.8,29.97,SSE,166,0.0,0.0,95,0.00,,---,0.00,VWS V14.01,2013-11-08 05:42:00,
2013-11-08 06:47:00,43.0,41.7,29.97,SSE,166,0.0,0.0,95,0.00,,---,0.00,VWS V14.01,2013-11-08 05:47:00,
2013-11-08 06:52:00,42.6,41.3,29.97,SSE,166,0.0,0.0,95,0.00,,---,0.00,VWS V14.01,2013-11-08 05:52:00,
2013-11-08 06:57:00,42.4,41.1,29.97,SSE,166,0.0,0.0,95,0.00,,---,0.00,VWS V14.01,2013-11-08 05:57:00,
2013-11-08 07:02:00,43.0,41.7,29.97,SSE,166,0.0,0.0,95,0.00,,---,0.00,VWS V14.01,2013-11-08 06:02:00,
2013-11-08 07:07:00,43.5,42.5,29.97,SSE,166,0.0,0.0,96,0.00,,---,0.00,VWS V14.01,2013-11-08 06:07:00,
2013-11-08 07:12:00,43.7,42.6,29.97,SSE,166,0.0,2.7,96,0.00,,---,0.00,VWS V14.01,2013-11-08 06:12:00,
2013-11-08 07:17:00,43.9,42.8,29.97,SSE,166,0.0,2.7,96,0.00,,---,0.00,VWS V14.01,2013-11-08 06:17:00,
2013-11-08 07:22:00,43.2,41.8,29.97,SSE,166,0.0,0.0,95,0.00,,---,0.00,VWS V14.01,2013-11-08 06:22:00,
2013-11-08 07:27:00,43.0,41.7,29.97,SSE,166,0.0,0.0,95,0.00,,---,0.00,VWS V14.01,2013-11-08 06:27:00,
2013-11-08 07:33:00,43.2,42.1,29.97,SSE,166,0.0,0.0,96,0.00,,---,0.00,VWS V14.01,2013-11-08 06:33:00,
2013-11-08 07:38:00,43.9,42.8,29.97,SSE,166,0.0,0.0,96,0.00,,---,0.00,VWS V14.01,2013-11-08 06:38:00,
2013-11-08 07:43:00,44.6,43.5,29.97,SSE,166,0.0,0.0,96,0.00,,---,0.00,VWS V14.01,2013-11-08 06:43:00,
2013-11-08 07:48:00,45.1,44.1,29.97,SSE,166,2.7,3.1,96,0.00,,---,0.00,VWS V14.01,2013-11-08 06:48:00,
2013-11-08 07:53:00,45.5,44.4,29.97,SSE,166,0.0,4.0,96,0.00,,---,0.00,VWS V14.01,2013-11-08 06:53:00,
2013-11-08 07:58:00,45.7,44.6,29.97,SSE,166,4.0,4.5,96,0.00,,---,0.00,VWS V14.01,2013-11-08 06:58:00,
2013-11-08 08:03:00,46.0,45.0,29.97,SSE,166,3.6,4.0,96,0.00,,---,0.00,VWS V14.01,2013-11-08 07:03:00,
2013-11-08 08:08:00,45.5,44.4,29.97,SSE,166,3.6,4.0,96,0.00,,---,0.00,VWS V14.01,2013-11-08 07:08:00,
2013-11-08 08:13:00,45.1,43.8,29.97,WNW,284,5.4,5.8,95,0.00,,---,0.00,VWS V14.01,2013-11-08 07:13:00,
2013-11-08 08:18:00,45.7,44.6,29.97,WNW,284,3.6,4.0,96,0.00,,---,0.00,VWS V14.01,2013-11-08 07:18:00,
2013-11-08 08:23:00,46.0,45.0,30.00,WNW,284,0.0,0.0,96,0.00,,---,0.00,VWS V14.01,2013-11-08 07:23:00,
2013-11-08 08:28:00,46.2,45.2,30.00,WNW,284,0.0,0.0,96,0.00,,---,0.00,VWS V14.01,2013-11-08 07:28:00,
2013-11-08 08:33:00,45.7,44.3,30.00,WNW,284,0.0,0.0,95,0.00,,---,0.00,VWS V14.01,2013-11-08 07:33:00,
2013-11-08 08:38:00,45.3,44.0,30.00,WNW,284,0.0,2.7,95,0.00,,---,0.00,VWS V14.01,2013-11-08 07:38:00,
2013-11-08 08:43:00,45.3,44.0,30.00,WNW,284,0.0,4.0,95,0.00,,---,0.00,VWS V14.01,2013-11-08 07:43:00,
2013-11-08 08:48:00,45.7,44.3,30.00,WNW,284,3.6,3.6,95,0.00,,---,0.00,VWS V14.01,2013-11-08 07:48:00,
2013-11-08 08:53:00,46.4,45.3,30.00,WNW,284,3.1,4.0,96,0.00,,---,0.00,VWS V14.01,2013-11-08 07:53:00,
2013-11-08 08:58:00,47.3,46.2,30.00,WNW,284,0.0,0.0,96,0.00,,---,0.00,VWS V14.01,2013-11-08 07:58:00,
2013-11-08 09:03:00,48.2,47.1,30.00,WNW,284,3.6,4.0,96,0.00,,---,0.00,VWS V14.01,2013-11-08 08:03:00,
2013-11-08 09:08:00,49.1,48.0,30.00,WNW,284,3.6,4.0,96,0.00,,---,0.00,VWS V14.01,2013-11-08 08:08:00,
2013-11-08 09:13:00,49.8,48.7,30.00,WNW,284,0.0,3.6,96,0.00,,---,0.00,VWS V14.01,2013-11-08 08:13:00,
2013-11-08 09:18:00,50.5,49.5,30.00,WNW,284,0.0,0.0,96,0.00,,---,0.00,VWS V14.01,2013-11-08 08:18:00,
2013-11-08 09:23:00,50.7,49.3,30.00,WNW,284,0.0,3.6,95,0.00,,---,0.00,VWS V14.01,2013-11-08 08:23:00,
2013-11-08 09:28:00,51.3,49.9,30.00,WNW,284,0.0,0.0,95,0.00,,---,0.00,VWS V14.01,2013-11-08 08:28:00,
2013-11-08 09:33:00,51.6,50.2,30.00,WNW,284,4.0,4.0,95,0.00,,---,0.00,VWS V14.01,2013-11-08 08:33:00,
2013-11-08 09:38:00,52.2,50.5,30.00,WNW,284,4.9,4.9,94,0.00,,---,0.00,VWS V14.01,2013-11-08 08:38:00,
2013-11-08 09:43:00,52.7,51.0,30.00,WNW,287,4.9,5.8,94,0.00,,---,0.00,VWS V14.01,2013-11-08 08:43:00,
2013-11-08 09:48:00,52.9,50.9,30.00,West,281,4.0,4.9,93,0.00,,---,0.00,VWS V14.01,2013-11-08 08:48:00,
2013-11-08 09:53:00,53.4,51.2,30.00,West,281,5.4,5.4,92,0.00,,---,0.00,VWS V14.01,2013-11-08 08:53:00,
2013-11-08 09:58:00,54.0,51.7,30.00,West,279,5.8,6.3,92,0.00,,---,0.00,VWS V14.01,2013-11-08 08:58:00,
2013-11-08 10:03:00,53.8,50.9,30.00,WNW,289,4.5,5.8,90,0.00,,---,0.00,VWS V14.01,2013-11-08 09:03:00,
2013-11-08 10:08:00,54.1,51.3,30.00,West,277,4.0,4.0,90,0.00,,---,0.00,VWS V14.01,2013-11-08 09:08:00,
2013-11-08 10:13:00,54.5,51.3,30.00,West,266,0.0,0.0,89,0.00,,---,0.00,VWS V14.01,2013-11-08 09:13:00,
2013-11-08 10:18:00,54.5,50.7,30.00,West,263,4.0,4.5,87,0.00,,---,0.00,VWS V14.01,2013-11-08 09:18:00,
2013-11-08 10:23:00,54.5,50.4,30.00,West,263,0.0,0.0,86,0.00,,---,0.00,VWS V14.01,2013-11-08 09:23:00,
2013-11-08 10:28:00,54.5,50.1,30.00,West,268,2.7,4.5,85,0.00,,---,0.00,VWS V14.01,2013-11-08 09:28:00,
2013-11-08 10:33:00,54.1,49.4,30.00,West,274,2.7,4.9,84,0.00,,---,0.00,VWS V14.01,2013-11-08 09:33:00,
2013-11-08 10:38:00,54.0,49.2,30.00,West,274,3.6,4.9,84,0.00,,---,0.00,VWS V14.01,2013-11-08 09:38:00,
2013-11-08 10:43:00,54.1,49.1,30.00,West,274,4.5,5.4,83,0.00,,---,0.00,VWS V14.01,2013-11-08 09:43:00,
2013-11-08 10:48:00,54.0,48.9,30.00,West,274,3.1,4.5,83,0.00,,---,0.00,VWS V14.01,2013-11-08 09:48:00,
2013-11-08 10:53:00,54.0,48.9,29.97,West,281,5.8,6.3,83,0.00,,---,0.00,VWS V14.01,2013-11-08 09:53:00,
2013-11-08 10:58:00,54.0,48.9,29.97,West,281,5.4,5.4,83,0.00,,---,0.00,VWS V14.01,2013-11-08 09:58:00,
2013-11-08 11:03:00,53.8,48.4,29.97,WNW,290,6.3,6.7,82,0.00,,---,0.00,VWS V14.01,2013-11-08 10:03:00,
2013-11-08 11:08:00,53.6,48.2,29.97,WNW,288,4.0,5.4,82,0.00,,---,0.00,VWS V14.01,2013-11-08 10:08:00,
2013-11-08 11:13:00,53.4,48.1,29.97,WNW,288,0.0,3.6,82,0.00,,---,0.00,VWS V14.01,2013-11-08 10:13:00,
2013-11-08 11:19:00,53.2,47.9,29.97,WNW,288,0.0,0.0,82,0.00,,---,0.00,VWS V14.01,2013-11-08 10:19:00,
2013-11-08 11:24:00,53.2,47.9,29.97,WNW,288,3.6,3.6,82,0.00,,---,0.00,VWS V14.01,2013-11-08 10:24:00,
2013-11-08 11:29:00,53.4,48.1,29.97,WNW,287,3.6,3.6,82,0.00,,---,0.00,VWS V14.01,2013-11-08 10:29:00,
2013-11-08 11:34:00,53.2,47.9,29.97,West,278,4.5,4.5,82,0.00,,---,0.00,VWS V14.01,2013-11-08 10:34:00,
2013-11-08 11:39:00,53.4,48.1,29.97,West,278,4.0,4.0,82,0.00,,---,0.00,VWS V14.01,2013-11-08 10:39:00,
2013-11-08 11:44:00,53.8,48.8,29.97,West,272,4.0,5.4,83,0.00,,---,0.00,VWS V14.01,2013-11-08 10:44:00,
2013-11-08 11:49:00,54.0,48.9,29.97,West,275,4.0,4.5,83,0.00,,---,0.00,VWS V14.01,2013-11-08 10:49:00,
2013-11-08 11:54:00,54.3,49.3,29.97,West,275,4.9,5.8,83,0.00,,---,0.00,VWS V14.01,2013-11-08 10:54:00,
2013-11-08 11:59:00,54.5,49.5,29.97,West,275,4.0,4.9,83,0.00,,---,0.00,VWS V14.01,2013-11-08 10:59:00,
2013-11-08 12:04:00,54.9,49.8,29.97,West,271,3.1,4.9,83,0.00,,---,0.00,VWS V14.01,2013-11-08 11:04:00,
2013-11-08 12:09:00,55.2,50.2,29.97,West,279,4.9,5.8,83,0.00,,---,0.00,VWS V14.01,2013-11-08 11:09:00,
2013-11-08 12:14:00,55.6,50.5,29.97,West,276,2.7,4.5,83,0.00,,---,0.00,VWS V14.01,2013-11-08 11:14:00,
2013-11-08 12:19:00,55.6,50.2,29.97,West,276,0.0,0.0,82,0.00,,---,0.00,VWS V14.01,2013-11-08 11:19:00,
2013-11-08 12:24:00,55.6,50.2,29.97,West,276,3.6,5.4,82,0.00,,---,0.00,VWS V14.01,2013-11-08 11:24:00,
2013-11-08 12:29:00,55.8,50.4,29.97,West,276,0.0,3.1,82,0.00,,---,0.00,VWS V14.01,2013-11-08 11:29:00,
2013-11-08 12:34:00,55.9,50.2,29.97,West,276,4.0,4.5,81,0.00,,---,0.00,VWS V14.01,2013-11-08 11:34:00,
2013-11-08 12:39:00,55.6,49.5,29.97,West,276,2.7,4.0,80,0.00,,---,0.00,VWS V14.01,2013-11-08 11:39:00,
2013-11-08 12:44:00,55.2,49.2,29.97,West,276,3.1,3.1,80,0.00,,---,0.00,VWS V14.01,2013-11-08 11:44:00,
2013-11-08 12:49:00,54.9,48.8,29.97,West,276,0.0,0.0,80,0.00,,---,0.00,VWS V14.01,2013-11-08 11:49:00,
2013-11-08 12:54:00,55.0,49.0,29.97,West,276,2.7,3.6,80,0.00,,---,0.00,VWS V14.01,2013-11-08 11:54:00,
2013-11-08 12:59:00,55.2,49.2,29.97,West,276,0.0,3.1,80,0.00,,---,0.00,VWS V14.01,2013-11-08 11:59:00,
2013-11-08 13:04:00,55.4,49.3,29.97,West,276,0.0,2.7,80,0.00,,---,0.00,VWS V14.01,2013-11-08 12:04:00,
2013-11-08 13:09:00,55.4,49.3,29.97,West,276,0.0,0.0,80,0.00,,---,0.00,VWS V14.01,2013-11-08 12:09:00,
2013-11-08 13:14:00,55.6,49.8,29.97,West,276,3.1,4.0,81,0.00,,---,0.00,VWS V14.01,2013-11-08 12:14:00,
2013-11-08 13:19:00,55.8,50.0,29.97,West,276,3.6,3.6,81,0.00,,---,0.00,VWS V14.01,2013-11-08 12:19:00,
2013-11-08 13:24:00,55.9,50.2,29.94,West,276,0.0,3.1,81,0.00,,---,0.00,VWS V14.01,2013-11-08 12:24:00,
2013-11-08 13:29:00,55.9,50.2,29.94,West,276,0.0,2.7,81,0.00,,---,0.00,VWS V14.01,2013-11-08 12:29:00,
2013-11-08 13:34:00,56.3,50.2,29.94,West,276,4.5,4.9,80,0.00,,---,0.00,VWS V14.01,2013-11-08 12:34:00,
2013-11-08 13:39:00,56.7,50.9,29.94,West,276,0.0,4.0,81,0.00,,---,0.00,VWS V14.01,2013-11-08 12:39:00,
2013-11-08 13:44:00,56.8,50.7,29.94,West,276,3.6,4.5,80,0.00,,---,0.00,VWS V14.01,2013-11-08 12:44:00,
2013-11-08 13:49:00,57.0,50.9,29.94,West,276,3.6,4.5,80,0.00,,---,0.00,VWS V14.01,2013-11-08 12:49:00,
2013-11-08 13:54:00,57.4,51.3,29.94,WNW,282,4.9,5.8,80,0.00,,---,0.00,VWS V14.01,2013-11-08 12:54:00,
2013-11-08 13:59:00,57.6,51.5,29.94,West,277,3.6,4.0,80,0.00,,---,0.00,VWS V14.01,2013-11-08 12:59:00,
2013-11-08 14:04:00,57.7,51.3,29.94,West,277,4.5,4.9,79,0.00,,---,0.00,VWS V14.01,2013-11-08 13:04:00,
2013-11-08 14:09:00,57.9,51.5,29.97,West,278,3.1,4.0,79,0.00,,---,0.00,VWS V14.01,2013-11-08 13:09:00,
2013-11-08 14:14:00,57.7,50.9,29.97,West,278,0.0,3.6,78,0.00,,---,0.00,VWS V14.01,2013-11-08 13:14:00,
2013-11-08 14:19:00,57.7,50.6,29.97,West,278,0.0,0.0,77,0.00,,---,0.00,VWS V14.01,2013-11-08 13:19:00,
2013-11-08 14:24:00,57.6,50.4,29.94,West,278,0.0,0.0,77,0.00,,---,0.00,VWS V14.01,2013-11-08 13:24:00,
2013-11-08 14:29:00,57.6,50.4,29.94,West,278,0.0,0.0,77,0.00,,---,0.00,VWS V14.01,2013-11-08 13:29:00,
2013-11-08 14:34:00,57.7,50.6,29.94,West,278,2.7,2.7,77,0.00,,---,0.00,VWS V14.01,2013-11-08 13:34:00,
2013-11-08 14:39:00,57.7,50.6,29.94,West,278,0.0,0.0,77,0.00,,---,0.00,VWS V14.01,2013-11-08 13:39:00,
2013-11-08 14:44:00,57.9,50.4,29.94,West,278,0.0,0.0,76,0.00,,---,0.00,VWS V14.01,2013-11-08 13:44:00,
2013-11-08 14:49:00,57.9,50.4,29.94,West,278,2.7,3.6,76,0.00,,---,0.00,VWS V14.01,2013-11-08 13:49:00,
2013-11-08 14:54:00,57.7,50.2,29.94,West,278,0.0,0.0,76,0.00,,---,0.00,VWS V14.01,2013-11-08 13:54:00,
2013-11-08 14:59:00,57.7,50.2,29.94,West,278,0.0,3.1,76,0.00,,---,0.00,VWS V14.01,2013-11-08 13:59:00,
2013-11-08 15:04:00,57.7,50.2,29.94,West,278,0.0,0.0,76,0.00,,---,0.00,VWS V14.01,2013-11-08 14:04:00,
2013-11-08 15:09:00,57.7,50.2,29.94,West,278,0.0,3.1,76,0.00,,---,0.00,VWS V14.01,2013-11-08 14:09:00,
2013-11-08 15:14:00,57.7,50.2,29.94,West,278,0.0,0.0,76,0.00,,---,0.00,VWS V14.01,2013-11-08 14:14:00,
2013-11-08 15:19:00,57.7,50.2,29.94,West,278,2.7,3.6,76,0.00,,---,0.00,VWS V14.01,2013-11-08 14:19:00,
2013-11-08 15:24:00,57.7,50.2,29.94,West,278,2.7,4.0,76,0.00,,---,0.00,VWS V14.01,2013-11-08 14:24:00,
2013-11-08 15:29:00,57.4,49.5,29.94,WNW,285,4.9,4.9,75,0.00,,---,0.00,VWS V14.01,2013-11-08 14:29:00,
2013-11-08 15:34:00,56.7,49.2,29.94,WNW,287,3.1,4.9,76,0.00,,---,0.00,VWS V14.01,2013-11-08 14:34:00,
2013-11-08 15:39:00,56.1,49.0,29.97,WNW,287,3.1,4.5,77,0.00,,---,0.00,VWS V14.01,2013-11-08 14:39:00,
2013-11-08 15:44:00,55.8,49.0,29.97,WNW,289,4.5,4.5,78,0.00,,---,0.00,VWS V14.01,2013-11-08 14:44:00,
2013-11-08 15:49:00,55.4,49.0,29.97,WNW,289,2.7,4.0,79,0.00,,---,0.00,VWS V14.01,2013-11-08 14:49:00,
2013-11-08 15:54:00,55.2,49.2,29.97,WNW,289,3.1,4.5,80,0.00,,---,0.00,VWS V14.01,2013-11-08 14:54:00,
2013-11-08 15:59:00,54.9,49.2,29.97,WNW,295,4.5,4.5,81,0.00,,---,0.00,VWS V14.01,2013-11-08 14:59:00,
2013-11-08 16:04:00,54.7,49.3,29.97,NW,309,3.1,4.5,82,0.00,,---,0.00,VWS V14.01,2013-11-08 15:04:00,
2013-11-08 16:09:00,54.5,49.5,29.97,NNW,342,5.8,5.8,83,0.00,,---,0.00,VWS V14.01,2013-11-08 15:09:00,
2013-11-08 16:14:00,54.1,49.1,29.97,NNW,338,0.0,0.0,83,0.00,,---,0.00,VWS V14.01,2013-11-08 15:14:00,
2013-11-08 16:19:00,54.0,48.9,29.97,NW,323,2.7,3.6,83,0.00,,---,0.00,VWS V14.01,2013-11-08 15:19:00,
2013-11-08 16:24:00,53.6,48.6,29.97,NW,325,3.6,5.8,83,0.00,,---,0.00,VWS V14.01,2013-11-08 15:24:00,
2013-11-08 16:29:00,53.4,48.7,29.97,NW,316,0.0,4.5,84,0.00,,---,0.00,VWS V14.01,2013-11-08 15:29:00,
2013-11-08 16:34:00,53.2,48.5,29.97,NW,316,3.1,4.0,84,0.00,,---,0.00,VWS V14.01,2013-11-08 15:34:00,
2013-11-08 16:39:00,53.1,48.4,29.97,NW,316,0.0,0.0,84,0.00,,---,0.00,VWS V14.01,2013-11-08 15:39:00,
2013-11-08 16:44:00,53.1,48.4,29.97,NW,316,2.7,2.7,84,0.00,,---,0.00,VWS V14.01,2013-11-08 15:44:00,
2013-11-08 16:49:00,52.9,48.2,29.97,NW,316,0.0,0.0,84,0.00,,---,0.00,VWS V14.01,2013-11-08 15:49:00,
2013-11-08 16:54:00,52.7,48.3,29.97,NW,316,3.1,3.6,85,0.00,,---,0.00,VWS V14.01,2013-11-08 15:54:00,
2013-11-08 16:59:00,52.7,48.3,29.97,NW,316,2.7,4.0,85,0.00,,---,0.00,VWS V14.01,2013-11-08 15:59:00,
2013-11-08 17:04:00,52.5,48.2,29.97,NW,316,0.0,3.1,85,0.00,,---,0.00,VWS V14.01,2013-11-08 16:04:00,
2013-11-08 17:09:00,52.3,48.0,29.94,NW,316,0.0,2.7,85,0.00,,---,0.00,VWS V14.01,2013-11-08 16:09:00,
2013-11-08 17:14:00,52.2,48.1,29.94,NW,316,0.0,0.0,86,0.00,,---,0.00,VWS V14.01,2013-11-08 16:14:00,
2013-11-08 17:19:00,52.0,47.9,29.94,NW,316,0.0,0.0,86,0.00,,---,0.00,VWS V14.01,2013-11-08 16:19:00,
2013-11-08 17:24:00,52.0,47.9,29.97,NW,316,3.1,3.1,86,0.00,,---,0.00,VWS V14.01,2013-11-08 16:24:00,
2013-11-08 17:29:00,51.8,47.8,29.97,NW,314,3.6,4.0,86,0.00,,---,0.00,VWS V14.01,2013-11-08 16:29:00,
2013-11-08 17:34:00,51.6,47.6,29.97,NW,309,3.1,4.0,86,0.00,,---,0.00,VWS V14.01,2013-11-08 16:34:00,
2013-11-08 17:39:00,51.6,47.9,29.97,NW,309,3.6,3.6,87,0.00,,---,0.00,VWS V14.01,2013-11-08 16:39:00,
2013-11-08 17:44:00,51.6,47.9,29.97,NW,306,3.6,4.5,87,0.00,,---,0.00,VWS V14.01,2013-11-08 16:44:00,
2013-11-08 17:49:00,51.4,47.7,29.97,NW,306,0.0,0.0,87,0.00,,---,0.00,VWS V14.01,2013-11-08 16:49:00,
2013-11-08 17:54:00,51.3,47.5,29.97,NW,306,3.6,3.6,87,0.00,,---,0.00,VWS V14.01,2013-11-08 16:54:00,
2013-11-08 17:59:00,51.1,47.3,29.97,NW,305,3.1,4.9,87,0.00,,---,0.00,VWS V14.01,2013-11-08 16:59:00,
2013-11-08 18:04:00,50.9,47.5,29.97,NW,305,0.0,0.0,88,0.00,,---,0.00,VWS V14.01,2013-11-08 17:04:00,
2013-11-08 18:09:00,50.9,47.5,29.97,NW,305,0.0,0.0,88,0.00,,---,0.00,VWS V14.01,2013-11-08 17:09:00,
2013-11-08 18:14:00,50.9,47.5,29.97,NW,305,4.5,4.5,88,0.00,,---,0.00,VWS V14.01,2013-11-08 17:14:00,
2013-11-08 18:19:00,50.7,47.6,29.97,WNW,302,2.7,4.5,89,0.00,,---,0.00,VWS V14.01,2013-11-08 17:19:00,
2013-11-08 18:24:00,50.9,47.8,29.97,WNW,302,0.0,0.0,89,0.00,,---,0.00,VWS V14.01,2013-11-08 17:24:00,
2013-11-08 18:29:00,50.7,47.9,29.97,WNW,302,0.0,0.0,90,0.00,,---,0.00,VWS V14.01,2013-11-08 17:29:00,
2013-11-08 18:34:00,50.7,47.9,29.97,WNW,302,2.7,4.0,90,0.00,,---,0.00,VWS V14.01,2013-11-08 17:34:00,
2013-11-08 18:39:00,50.5,47.7,29.97,WNW,302,0.0,0.0,90,0.00,,---,0.00,VWS V14.01,2013-11-08 17:39:00,
2013-11-08 18:44:00,50.5,47.7,29.97,WNW,302,2.7,2.7,90,0.00,,---,0.00,VWS V14.01,2013-11-08 17:44:00,
2013-11-08 18:49:00,50.4,47.5,29.97,WNW,287,4.5,5.4,90,0.00,,---,0.00,VWS V14.01,2013-11-08 17:49:00,
2013-11-08 18:54:00,50.2,47.4,29.97,West,270,0.0,3.6,90,0.00,,---,0.00,VWS V14.01,2013-11-08 17:54:00,
2013-11-08 18:59:00,50.2,47.4,29.97,West,270,3.6,4.0,90,0.00,,---,0.00,VWS V14.01,2013-11-08 17:59:00,
2013-11-08 19:04:00,50.0,47.5,29.97,West,270,3.6,3.6,91,0.00,,---,0.00,VWS V14.01,2013-11-08 18:04:00,
2013-11-08 19:09:00,50.0,47.5,29.94,WNW,302,4.0,5.4,91,0.00,,---,0.00,VWS V14.01,2013-11-08 18:09:00,
2013-11-08 19:14:00,49.8,47.3,29.94,NW,308,4.5,4.5,91,0.00,,---,0.00,VWS V14.01,2013-11-08 18:14:00,
2013-11-08 19:19:00,50.0,47.8,29.94,NW,309,0.0,0.0,92,0.00,,---,0.00,VWS V14.01,2013-11-08 18:19:00,
2013-11-08 19:24:00,50.2,48.0,29.94,NW,309,2.7,3.1,92,0.00,,---,0.00,VWS V14.01,2013-11-08 18:24:00,
2013-11-08 19:29:00,49.8,47.6,29.94,NW,309,3.1,3.6,92,0.00,,---,0.00,VWS V14.01,2013-11-08 18:29:00,
2013-11-08 19:34:00,49.6,47.4,29.94,NW,309,3.1,3.6,92,0.00,,---,0.00,VWS V14.01,2013-11-08 18:34:00,
2013-11-08 19:39:00,49.6,47.4,29.97,NNW,327,4.0,5.8,92,0.00,,---,0.00,VWS V14.01,2013-11-08 18:39:00,
2013-11-08 19:44:00,49.3,47.1,29.97,NNW,328,4.9,5.4,92,0.00,,---,0.00,VWS V14.01,2013-11-08 18:44:00,
2013-11-08 19:49:00,49.1,47.2,29.97,NW,324,4.0,4.5,93,0.00,,---,0.00,VWS V14.01,2013-11-08 18:49:00,
2013-11-08 19:54:00,48.7,46.8,29.94,NNW,340,4.0,4.9,93,0.00,,---,0.00,VWS V14.01,2013-11-08 18:54:00,
2013-11-08 19:59:00,48.7,47.1,29.94,NW,320,3.6,4.9,94,0.00,,---,0.00,VWS V14.01,2013-11-08 18:59:00,
2013-11-08 20:04:00,48.7,47.1,29.94,NW,326,3.1,5.8,94,0.00,,---,0.00,VWS V14.01,2013-11-08 19:04:00,
2013-11-08 20:09:00,48.9,47.5,29.94,NNW,340,4.0,5.8,95,0.00,,---,0.00,VWS V14.01,2013-11-08 19:09:00,
2013-11-08 20:14:00,48.9,47.5,29.94,NW,312,4.5,4.9,95,0.00,,---,0.00,VWS V14.01,2013-11-08 19:14:00,
2013-11-08 20:19:00,48.7,47.4,29.94,NNW,339,4.5,4.5,95,0.00,,---,0.00,VWS V14.01,2013-11-08 19:19:00,
2013-11-08 20:24:00,48.6,47.2,29.94,NNW,339,4.0,4.5,95,0.00,,---,0.00,VWS V14.01,2013-11-08 19:24:00,
2013-11-08 20:29:00,48.4,47.0,29.94,NNW,333,4.0,4.5,95,0.00,,---,0.00,VWS V14.01,2013-11-08 19:29:00,
2013-11-08 20:34:00,48.2,46.8,29.94,NNW,335,3.6,4.0,95,0.00,,---,0.00,VWS V14.01,2013-11-08 19:34:00,
2013-11-08 20:39:00,48.2,47.1,29.97,NNW,334,2.7,4.9,96,0.00,,---,0.00,VWS V14.01,2013-11-08 19:39:00,
2013-11-08 20:44:00,48.2,47.1,29.97,NNW,336,0.0,3.6,96,0.00,,---,0.00,VWS V14.01,2013-11-08 19:44:00,
2013-11-08 20:49:00,48.2,47.1,29.97,NNW,327,4.0,4.9,96,0.00,,---,0.00,VWS V14.01,2013-11-08 19:49:00,
2013-11-08 20:54:00,48.4,47.3,29.94,NNW,328,3.1,4.5,96,0.00,,---,0.00,VWS V14.01,2013-11-08 19:54:00,
2013-11-08 20:59:00,48.4,47.3,29.94,NNW,328,3.1,4.5,96,0.00,,---,0.00,VWS V14.01,2013-11-08 19:59:00,
2013-11-08 21:04:00,48.4,47.3,29.94,NNW,327,3.6,4.0,96,0.00,,---,0.00,VWS V14.01,2013-11-08 20:04:00,
2013-11-08 21:09:00,48.4,47.3,29.94,NW,311,4.0,4.9,96,0.00,,---,0.00,VWS V14.01,2013-11-08 20:09:00,
2013-11-08 21:14:00,48.6,47.5,29.94,WNW,289,4.9,5.4,96,0.00,,---,0.00,VWS V14.01,2013-11-08 20:14:00,
2013-11-08 21:19:00,48.6,47.8,29.94,WNW,288,3.1,4.5,97,0.00,,---,0.00,VWS V14.01,2013-11-08 20:19:00,
2013-11-08 21:24:00,48.7,47.9,29.94,WNW,297,3.6,4.5,97,0.00,,---,0.00,VWS V14.01,2013-11-08 20:24:00,
2013-11-08 21:29:00,48.7,47.9,29.94,NW,324,3.6,4.0,97,0.00,,---,0.00,VWS V14.01,2013-11-08 20:29:00,
2013-11-08 21:34:00,48.7,47.9,29.94,NNW,337,4.9,4.9,97,0.00,,---,0.00,VWS V14.01,2013-11-08 20:34:00,
2013-11-08 21:39:00,48.7,47.9,29.94,NNW,344,5.8,5.8,97,0.00,,---,0.00,VWS V14.01,2013-11-08 20:39:00,
2013-11-08 21:44:00,48.6,47.8,29.94,North,0,3.6,4.9,97,0.00,,---,0.00,VWS V14.01,2013-11-08 20:44:00,
2013-11-08 21:49:00,48.6,47.8,29.94,NNW,344,4.5,4.9,97,0.00,,---,0.00,VWS V14.01,2013-11-08 20:49:00,
2013-11-08 21:54:00,48.6,47.8,29.94,North,351,4.0,4.0,97,0.00,,---,0.00,VWS V14.01,2013-11-08 20:54:00,
2013-11-08 21:59:00,48.6,47.8,29.94,NNW,342,4.9,4.9,97,0.00,,---,0.00,VWS V14.01,2013-11-08 20:59:00,
2013-11-08 22:04:00,48.4,47.6,29.94,NNW,342,2.7,5.4,97,0.00,,---,0.00,VWS V14.01,2013-11-08 21:04:00,
2013-11-08 22:09:00,48.4,47.6,29.94,NNW,347,4.9,4.9,97,0.00,,---,0.00,VWS V14.01,2013-11-08 21:09:00,
2013-11-08 22:14:00,48.4,47.6,29.94,NW,307,4.0,4.0,97,0.00,,---,0.00,VWS V14.01,2013-11-08 21:14:00,
2013-11-08 22:19:00,48.4,47.6,29.94,NNW,333,0.0,3.1,97,0.00,,---,0.00,VWS V14.01,2013-11-08 21:19:00,
2013-11-08 22:24:00,48.4,47.6,29.94,NNW,339,4.0,4.9,97,0.00,,---,0.00,VWS V14.01,2013-11-08 21:24:00,
2013-11-08 22:29:00,48.4,47.6,29.94,NNW,336,4.0,5.4,97,0.00,,---,0.00,VWS V14.01,2013-11-08 21:29:00,
2013-11-08 22:34:00,48.4,47.6,29.94,North,351,5.8,5.8,97,0.00,,---,0.00,VWS V14.01,2013-11-08 21:34:00,
2013-11-08 22:39:00,48.6,47.8,29.94,NNW,338,4.0,5.8,97,0.00,,---,0.00,VWS V14.01,2013-11-08 21:39:00,
2013-11-08 22:44:00,48.4,47.6,29.94,NNW,336,4.5,4.9,97,0.00,,---,0.00,VWS V14.01,2013-11-08 21:44:00,
2013-11-08 22:49:00,48.4,47.6,29.94,NNW,332,4.5,5.4,97,0.00,,---,0.00,VWS V14.01,2013-11-08 21:49:00,
2013-11-08 22:54:00,48.4,47.6,29.94,North,351,4.0,4.5,97,0.00,,---,0.00,VWS V14.01,2013-11-08 21:54:00,
2013-11-08 22:59:00,48.4,47.6,29.94,North,351,4.0,4.5,97,0.00,,---,0.00,VWS V14.01,2013-11-08 21:59:00,
2013-11-08 23:04:00,48.4,47.6,29.94,NW,319,4.0,4.9,97,0.00,,---,0.00,VWS V14.01,2013-11-08 22:04:00,
2013-11-08 23:09:00,48.4,47.6,29.94,NW,326,3.1,5.8,97,0.00,,---,0.00,VWS V14.01,2013-11-08 22:09:00,
2013-11-08 23:14:00,48.4,47.6,29.94,NNW,331,3.1,4.5,97,0.00,,---,0.00,VWS V14.01,2013-11-08 22:14:00,
2013-11-08 23:19:00,48.6,47.8,29.94,NNW,344,4.5,4.5,97,0.00,,---,0.00,VWS V14.01,2013-11-08 22:19:00,
2013-11-08 23:24:00,48.6,47.8,29.91,North,351,3.6,4.0,97,0.00,,---,0.00,VWS V14.01,2013-11-08 22:24:00,
2013-11-08 23:29:00,48.6,47.8,29.91,WNW,294,6.3,6.3,97,0.00,,---,0.00,VWS V14.01,2013-11-08 22:29:00,
2013-11-08 23:34:00,48.7,47.9,29.91,WNW,292,4.5,5.8,97,0.00,,---,0.00,VWS V14.01,2013-11-08 22:34:00,
2013-11-08 23:39:00,48.7,47.9,29.91,NW,304,3.6,5.8,97,0.00,,---,0.00,VWS V14.01,2013-11-08 22:39:00,
2013-11-08 23:44:00,48.7,47.9,29.91,WNW,288,2.7,4.0,97,0.00,,---,0.00,VWS V14.01,2013-11-08 22:44:00,
2013-11-08 23:49:00,48.7,47.9,29.91,NW,319,2.7,4.5,97,0.00,,---,0.00,VWS V14.01,2013-11-08 22:49:00,
2013-11-08 23:54:00,48.7,47.9,29.91,NNW,347,3.6,4.0,97,0.00,,---,0.00,VWS V14.01,2013-11-08 22:54:00,
2013-11-08 23:59:00,48.7,47.9,29.91,NNW,342,3.6,4.9,97,0.00,,---,0.00,VWS V14.01,2013-11-08 22:59:00,